Belcourt, Canada
Current Conditions -  °F | °C
As of 10:58 PM on Saturday 22 Nov 2014 (Local Time) from CYVO Reporting Station
Light Rain Light Rain  
Wind Chill: 26°   Ceiling: 1200
Heat Index: 34°   Visibility: 8mi
Dew Point: 32°   Wind: 10mph
Humidity: 93%   Direction: 220°SW
Pressure: 29.72"   Gusts: NA
Location:  48.4°N, 77.35°W
Report Text: CYVO 230358Z AUTO 22009KT 8SM -RA OVC012 01/00 A2972 RMK PCPN 0.8MM PAST HR SLP082
Loading
Personal Weather Stations






























Interactive Weather Map New forecast layout! Learn more

10-Day Weather Forecast

Advertisements
Track Severe Weather on mobile